Maple Hill, Iowa
Current Conditions -  °F | °C
As of 11:52 PM on Wednesday 22 Oct 2014 (Local Time) from KEST Reporting Station
Overcast Overcast  
Wind Chill: 54°   Ceiling: 7000
Heat Index: 54°   Visibility: 10mi
Dew Point: 53°   Wind: 13mph
Humidity: 97%   Direction: 190°S
Pressure: 30.03"   Gusts: NA
Location:  43.4207°N, 94.5018°W
Report Text: KEST 230452Z AUTO 19011KT 10SM BKN070 OVC090 12/12 A3003 RMK AO2 SLP168 T01220117
Loading
Personal Weather Stations






























Interactive Weather Map
Tropical Storm Tracking
New forecast layout! Learn more

10-Day Weather Forecast

Advertisements
Track Severe Weather on mobile